<?xml version="1.0" encoding="UTF-8" standalone="no" ?>
<gpx xmlns="http://www.topografix.com/GPX/1/1" xmlns:xsi="http://www.w3.org/2001/XMLSchema-instance" xsi:schemaLocation="http://www.topografix.com/GPX/1/1 http://www.topografix.com/GPX/1/1/gpx.xsd" version="1.1" creator="VisuGPX - https://www.visugpx.com">
  <metadata>
    <name>TG19 15 KMS</name>
    <desc><![CDATA[                                            ]]></desc>
  </metadata>
  <trk>
    <name><![CDATA[TG19 15 KMS_1]]></name>
    <trkseg>
      <trkpt lat="46.72857" lon="-0.16523">
        <ele>123.1</ele>
        <time>2019-02-03T20:51:42.000Z</time>
      </trkpt>
      <trkpt lat="46.72892" lon="-0.16518">
        <ele>123.2</ele>
        <time>2019-02-03T20:51:46.698Z</time>
      </trkpt>
      <trkpt lat="46.729" lon="-0.1652">
        <ele>123.2</ele>
        <time>2019-02-03T20:51:47.782Z</time>
      </trkpt>
      <trkpt lat="46.72913" lon="-0.16527">
        <ele>123.1</ele>
        <time>2019-02-03T20:51:49.633Z</time>
      </trkpt>
      <trkpt lat="46.72943" lon="-0.1654">
        <ele>123.9</ele>
        <time>2019-02-03T20:51:53.814Z</time>
      </trkpt>
      <trkpt lat="46.7297" lon="-0.16556">
        <ele>123.2</ele>
        <time>2019-02-03T20:51:57.707Z</time>
      </trkpt>
      <trkpt lat="46.72993" lon="-0.16574">
        <ele>122.9</ele>
        <time>2019-02-03T20:52:01.194Z</time>
      </trkpt>
      <trkpt lat="46.73" lon="-0.16581">
        <ele>122.9</ele>
        <time>2019-02-03T20:52:02.328Z</time>
      </trkpt>
      <trkpt lat="46.73015" lon="-0.16587">
        <ele>122.6</ele>
        <time>2019-02-03T20:52:04.406Z</time>
      </trkpt>
      <trkpt lat="46.73018" lon="-0.16584">
        <ele>122.4</ele>
        <time>2019-02-03T20:52:04.892Z</time>
      </trkpt>
      <trkpt lat="46.73026" lon="-0.16575">
        <ele>122</ele>
        <time>2019-02-03T20:52:06.242Z</time>
      </trkpt>
      <trkpt lat="46.73043" lon="-0.16559">
        <ele>121.6</ele>
        <time>2019-02-03T20:52:08.945Z</time>
      </trkpt>
      <trkpt lat="46.73072" lon="-0.16526">
        <ele>120.5</ele>
        <time>2019-02-03T20:52:13.858Z</time>
      </trkpt>
      <trkpt lat="46.73097" lon="-0.1648">
        <ele>117.3</ele>
        <time>2019-02-03T20:52:19.234Z</time>
      </trkpt>
      <trkpt lat="46.73152" lon="-0.16361">
        <ele>112.5</ele>
        <time>2019-02-03T20:52:32.377Z</time>
      </trkpt>
      <trkpt lat="46.73161" lon="-0.16346">
        <ele>112.3</ele>
        <time>2019-02-03T20:52:34.202Z</time>
      </trkpt>
      <trkpt lat="46.73177" lon="-0.16326">
        <ele>111.6</ele>
        <time>2019-02-03T20:52:37.017Z</time>
      </trkpt>
      <trkpt lat="46.73193" lon="-0.16311">
        <ele>111.2</ele>
        <time>2019-02-03T20:52:39.558Z</time>
      </trkpt>
      <trkpt lat="46.73204" lon="-0.16303">
        <ele>110.9</ele>
        <time>2019-02-03T20:52:41.200Z</time>
      </trkpt>
      <trkpt lat="46.73239" lon="-0.16277">
        <ele>110</ele>
        <time>2019-02-03T20:52:46.447Z</time>
      </trkpt>
      <trkpt lat="46.73255" lon="-0.16262">
        <ele>109.5</ele>
        <time>2019-02-03T20:52:48.988Z</time>
      </trkpt>
      <trkpt lat="46.73269" lon="-0.16244">
        <ele>109.5</ele>
        <time>2019-02-03T20:52:51.481Z</time>
      </trkpt>
      <trkpt lat="46.73305" lon="-0.16186">
        <ele>108.7</ele>
        <time>2019-02-03T20:52:58.646Z</time>
      </trkpt>
      <trkpt lat="46.73319" lon="-0.16166">
        <ele>108</ele>
        <time>2019-02-03T20:53:01.264Z</time>
      </trkpt>
      <trkpt lat="46.73334" lon="-0.1615">
        <ele>108</ele>
        <time>2019-02-03T20:53:03.746Z</time>
      </trkpt>
      <trkpt lat="46.73356" lon="-0.16136">
        <ele>107.2</ele>
        <time>2019-02-03T20:53:06.953Z</time>
      </trkpt>
      <trkpt lat="46.7338" lon="-0.16122">
        <ele>105.5</ele>
        <time>2019-02-03T20:53:10.406Z</time>
      </trkpt>
      <trkpt lat="46.73415" lon="-0.16108">
        <ele>103</ele>
        <time>2019-02-03T20:53:15.254Z</time>
      </trkpt>
      <trkpt lat="46.73457" lon="-0.16091">
        <ele>101.6</ele>
        <time>2019-02-03T20:53:21.077Z</time>
      </trkpt>
      <trkpt lat="46.73497" lon="-0.16077">
        <ele>99.9</ele>
        <time>2019-02-03T20:53:26.572Z</time>
      </trkpt>
      <trkpt lat="46.73516" lon="-0.16073">
        <ele>99.4</ele>
        <time>2019-02-03T20:53:29.137Z</time>
      </trkpt>
      <trkpt lat="46.73532" lon="-0.16073">
        <ele>99</ele>
        <time>2019-02-03T20:53:31.274Z</time>
      </trkpt>
      <trkpt lat="46.73548" lon="-0.16076">
        <ele>98.2</ele>
        <time>2019-02-03T20:53:33.429Z</time>
      </trkpt>
      <trkpt lat="46.73566" lon="-0.16084">
        <ele>97.7</ele>
        <time>2019-02-03T20:53:35.943Z</time>
      </trkpt>
      <trkpt lat="46.73601" lon="-0.16108">
        <ele>97.6</ele>
        <time>2019-02-03T20:53:41.109Z</time>
      </trkpt>
      <trkpt lat="46.73607" lon="-0.16084">
        <ele>96.2</ele>
        <time>2019-02-03T20:53:43.448Z</time>
      </trkpt>
      <trkpt lat="46.7361" lon="-0.16057">
        <ele>95.1</ele>
        <time>2019-02-03T20:53:45.952Z</time>
      </trkpt>
      <trkpt lat="46.73616" lon="-0.16024">
        <ele>93.9</ele>
        <time>2019-02-03T20:53:49.078Z</time>
      </trkpt>
      <trkpt lat="46.73624" lon="-0.15974">
        <ele>94</ele>
        <time>2019-02-03T20:53:53.779Z</time>
      </trkpt>
      <trkpt lat="46.73625" lon="-0.15952">
        <ele>93.3</ele>
        <time>2019-02-03T20:53:55.798Z</time>
      </trkpt>
      <trkpt lat="46.73622" lon="-0.15915">
        <ele>92.7</ele>
        <time>2019-02-03T20:53:59.209Z</time>
      </trkpt>
      <trkpt lat="46.73591" lon="-0.15839">
        <ele>92.9</ele>
        <time>2019-02-03T20:54:07.307Z</time>
      </trkpt>
      <trkpt lat="46.73578" lon="-0.15787">
        <ele>93.9</ele>
        <time>2019-02-03T20:54:12.375Z</time>
      </trkpt>
      <trkpt lat="46.7357" lon="-0.15712">
        <ele>94.4</ele>
        <time>2019-02-03T20:54:19.325Z</time>
      </trkpt>
      <trkpt lat="46.73563" lon="-0.15675">
        <ele>95.7</ele>
        <time>2019-02-03T20:54:22.839Z</time>
      </trkpt>
      <trkpt lat="46.73561" lon="-0.15638">
        <ele>96.2</ele>
        <time>2019-02-03T20:54:26.237Z</time>
      </trkpt>
      <trkpt lat="46.73562" lon="-0.15589">
        <ele>98.6</ele>
        <time>2019-02-03T20:54:30.726Z</time>
      </trkpt>
      <trkpt lat="46.73573" lon="-0.15549">
        <ele>100.1</ele>
        <time>2019-02-03T20:54:34.672Z</time>
      </trkpt>
      <trkpt lat="46.73581" lon="-0.15507">
        <ele>104.1</ele>
        <time>2019-02-03T20:54:38.663Z</time>
      </trkpt>
      <trkpt lat="46.73582" lon="-0.15483">
        <ele>106.1</ele>
        <time>2019-02-03T20:54:40.865Z</time>
      </trkpt>
      <trkpt lat="46.73582" lon="-0.15431">
        <ele>109.9</ele>
        <time>2019-02-03T20:54:45.626Z</time>
      </trkpt>
      <trkpt lat="46.73582" lon="-0.15387">
        <ele>112.9</ele>
        <time>2019-02-03T20:54:49.655Z</time>
      </trkpt>
      <trkpt lat="46.73584" lon="-0.15372">
        <ele>113.7</ele>
        <time>2019-02-03T20:54:51.054Z</time>
      </trkpt>
      <trkpt lat="46.73588" lon="-0.15364">
        <ele>114.2</ele>
        <time>2019-02-03T20:54:51.961Z</time>
      </trkpt>
      <trkpt lat="46.73603" lon="-0.15349">
        <ele>115.5</ele>
        <time>2019-02-03T20:54:54.390Z</time>
      </trkpt>
      <trkpt lat="46.73643" lon="-0.15314">
        <ele>119</ele>
        <time>2019-02-03T20:55:00.621Z</time>
      </trkpt>
      <trkpt lat="46.7365" lon="-0.15308">
        <ele>119.7</ele>
        <time>2019-02-03T20:55:01.706Z</time>
      </trkpt>
      <trkpt lat="46.73659" lon="-0.15306">
        <ele>120.4</ele>
        <time>2019-02-03T20:55:02.922Z</time>
      </trkpt>
      <trkpt lat="46.73715" lon="-0.15301">
        <ele>123.1</ele>
        <time>2019-02-03T20:55:10.417Z</time>
      </trkpt>
      <trkpt lat="46.73737" lon="-0.15297">
        <ele>124.9</ele>
        <time>2019-02-03T20:55:13.379Z</time>
      </trkpt>
      <trkpt lat="46.73827" lon="-0.15254">
        <ele>130.7</ele>
        <time>2019-02-03T20:55:26.031Z</time>
      </trkpt>
      <trkpt lat="46.73865" lon="-0.15228">
        <ele>134.2</ele>
        <time>2019-02-03T20:55:31.638Z</time>
      </trkpt>
      <trkpt lat="46.7387" lon="-0.15221">
        <ele>134.5</ele>
        <time>2019-02-03T20:55:32.564Z</time>
      </trkpt>
      <trkpt lat="46.73872" lon="-0.15217">
        <ele>135.4</ele>
        <time>2019-02-03T20:55:33.017Z</time>
      </trkpt>
      <trkpt lat="46.73877" lon="-0.15219">
        <ele>135.2</ele>
        <time>2019-02-03T20:55:33.710Z</time>
      </trkpt>
      <trkpt lat="46.73904" lon="-0.15216">
        <ele>139</ele>
        <time>2019-02-03T20:55:37.328Z</time>
      </trkpt>
      <trkpt lat="46.73943" lon="-0.15205">
        <ele>145.1</ele>
        <time>2019-02-03T20:55:42.635Z</time>
      </trkpt>
      <trkpt lat="46.7398" lon="-0.15192">
        <ele>148.5</ele>
        <time>2019-02-03T20:55:47.719Z</time>
      </trkpt>
      <trkpt lat="46.73998" lon="-0.15175">
        <ele>150.3</ele>
        <time>2019-02-03T20:55:50.583Z</time>
      </trkpt>
      <trkpt lat="46.74027" lon="-0.15152">
        <ele>152</ele>
        <time>2019-02-03T20:55:54.993Z</time>
      </trkpt>
      <trkpt lat="46.74052" lon="-0.15136">
        <ele>153.2</ele>
        <time>2019-02-03T20:55:58.640Z</time>
      </trkpt>
      <trkpt lat="46.74066" lon="-0.15123">
        <ele>154.3</ele>
        <time>2019-02-03T20:56:00.857Z</time>
      </trkpt>
      <trkpt lat="46.74068" lon="-0.15124">
        <ele>154.3</ele>
        <time>2019-02-03T20:56:01.139Z</time>
      </trkpt>
      <trkpt lat="46.7411" lon="-0.15128">
        <ele>153.8</ele>
        <time>2019-02-03T20:56:06.762Z</time>
      </trkpt>
      <trkpt lat="46.74143" lon="-0.1514">
        <ele>152.8</ele>
        <time>2019-02-03T20:56:11.305Z</time>
      </trkpt>
      <trkpt lat="46.74154" lon="-0.15139">
        <ele>152.5</ele>
        <time>2019-02-03T20:56:12.777Z</time>
      </trkpt>
      <trkpt lat="46.74177" lon="-0.15121">
        <ele>153.3</ele>
        <time>2019-02-03T20:56:16.264Z</time>
      </trkpt>
      <trkpt lat="46.74195" lon="-0.15113">
        <ele>153.8</ele>
        <time>2019-02-03T20:56:18.778Z</time>
      </trkpt>
      <trkpt lat="46.74218" lon="-0.15107">
        <ele>153.4</ele>
        <time>2019-02-03T20:56:21.899Z</time>
      </trkpt>
      <trkpt lat="46.74243" lon="-0.15101">
        <ele>153.3</ele>
        <time>2019-02-03T20:56:25.284Z</time>
      </trkpt>
      <trkpt lat="46.74272" lon="-0.15096">
        <ele>153.2</ele>
        <time>2019-02-03T20:56:29.185Z</time>
      </trkpt>
      <trkpt lat="46.74287" lon="-0.15096">
        <ele>152.9</ele>
        <time>2019-02-03T20:56:31.189Z</time>
      </trkpt>
      <trkpt lat="46.74307" lon="-0.15102">
        <ele>152</ele>
        <time>2019-02-03T20:56:33.917Z</time>
      </trkpt>
      <trkpt lat="46.74337" lon="-0.15111">
        <ele>151</ele>
        <time>2019-02-03T20:56:38.009Z</time>
      </trkpt>
      <trkpt lat="46.74356" lon="-0.15114">
        <ele>150.8</ele>
        <time>2019-02-03T20:56:40.562Z</time>
      </trkpt>
      <trkpt lat="46.74411" lon="-0.15111">
        <ele>149.2</ele>
        <time>2019-02-03T20:56:47.915Z</time>
      </trkpt>
      <trkpt lat="46.74431" lon="-0.15115">
        <ele>149.2</ele>
        <time>2019-02-03T20:56:50.612Z</time>
      </trkpt>
      <trkpt lat="46.7445" lon="-0.15125">
        <ele>149.4</ele>
        <time>2019-02-03T20:56:53.310Z</time>
      </trkpt>
      <trkpt lat="46.74478" lon="-0.15145">
        <ele>150.8</ele>
        <time>2019-02-03T20:56:57.475Z</time>
      </trkpt>
      <trkpt lat="46.74491" lon="-0.15157">
        <ele>152.2</ele>
        <time>2019-02-03T20:56:59.530Z</time>
      </trkpt>
      <trkpt lat="46.74509" lon="-0.15173">
        <ele>154</ele>
        <time>2019-02-03T20:57:02.346Z</time>
      </trkpt>
      <trkpt lat="46.74526" lon="-0.1519">
        <ele>155.8</ele>
        <time>2019-02-03T20:57:05.099Z</time>
      </trkpt>
      <trkpt lat="46.74571" lon="-0.15253">
        <ele>159.6</ele>
        <time>2019-02-03T20:57:13.430Z</time>
      </trkpt>
      <trkpt lat="46.74576" lon="-0.15268">
        <ele>159.7</ele>
        <time>2019-02-03T20:57:14.957Z</time>
      </trkpt>
      <trkpt lat="46.7458" lon="-0.15294">
        <ele>159.8</ele>
        <time>2019-02-03T20:57:17.396Z</time>
      </trkpt>
      <trkpt lat="46.74588" lon="-0.15293">
        <ele>160.2</ele>
        <time>2019-02-03T20:57:18.469Z</time>
      </trkpt>
      <trkpt lat="46.74593" lon="-0.15288">
        <ele>160.3</ele>
        <time>2019-02-03T20:57:19.279Z</time>
      </trkpt>
      <trkpt lat="46.74608" lon="-0.15262">
        <ele>160.4</ele>
        <time>2019-02-03T20:57:22.390Z</time>
      </trkpt>
      <trkpt lat="46.74617" lon="-0.15246">
        <ele>160.3</ele>
        <time>2019-02-03T20:57:24.285Z</time>
      </trkpt>
      <trkpt lat="46.74623" lon="-0.15244">
        <ele>160.6</ele>
        <time>2019-02-03T20:57:25.107Z</time>
      </trkpt>
      <trkpt lat="46.74628" lon="-0.15245">
        <ele>160.7</ele>
        <time>2019-02-03T20:57:25.781Z</time>
      </trkpt>
      <trkpt lat="46.74696" lon="-0.15318">
        <ele>161</ele>
        <time>2019-02-03T20:57:37.059Z</time>
      </trkpt>
      <trkpt lat="46.74696" lon="-0.15318">
        <ele>161</ele>
        <time>2019-02-03T20:57:37.075Z</time>
      </trkpt>
      <trkpt lat="46.74715" lon="-0.15338">
        <ele>161</ele>
        <time>2019-02-03T20:57:40.189Z</time>
      </trkpt>
      <trkpt lat="46.74715" lon="-0.15338">
        <ele>161</ele>
        <time>2019-02-03T20:57:40.189Z</time>
      </trkpt>
      <trkpt lat="46.74778" lon="-0.15409">
        <ele>160</ele>
        <time>2019-02-03T20:57:50.816Z</time>
      </trkpt>
      <trkpt lat="46.74788" lon="-0.15426">
        <ele>160</ele>
        <time>2019-02-03T20:57:52.867Z</time>
      </trkpt>
      <trkpt lat="46.74804" lon="-0.15464">
        <ele>159.3</ele>
        <time>2019-02-03T20:57:56.950Z</time>
      </trkpt>
      <trkpt lat="46.74853" lon="-0.15587">
        <ele>152.3</ele>
        <time>2019-02-03T20:58:09.974Z</time>
      </trkpt>
      <trkpt lat="46.74874" lon="-0.15644">
        <ele>148.3</ele>
        <time>2019-02-03T20:58:15.898Z</time>
      </trkpt>
      <trkpt lat="46.74883" lon="-0.15653">
        <ele>147.6</ele>
        <time>2019-02-03T20:58:17.356Z</time>
      </trkpt>
      <trkpt lat="46.74894" lon="-0.15664">
        <ele>147.8</ele>
        <time>2019-02-03T20:58:19.137Z</time>
      </trkpt>
      <trkpt lat="46.749" lon="-0.15674">
        <ele>148.7</ele>
        <time>2019-02-03T20:58:20.354Z</time>
      </trkpt>
      <trkpt lat="46.74901" lon="-0.15682">
        <ele>149</ele>
        <time>2019-02-03T20:58:21.098Z</time>
      </trkpt>
      <trkpt lat="46.74902" lon="-0.15704">
        <ele>149.7</ele>
        <time>2019-02-03T20:58:23.116Z</time>
      </trkpt>
      <trkpt lat="46.749" lon="-0.15765">
        <ele>151.3</ele>
        <time>2019-02-03T20:58:28.706Z</time>
      </trkpt>
      <trkpt lat="46.74899" lon="-0.15785">
        <ele>151.9</ele>
        <time>2019-02-03T20:58:30.542Z</time>
      </trkpt>
      <trkpt lat="46.74911" lon="-0.15794">
        <ele>153.9</ele>
        <time>2019-02-03T20:58:32.356Z</time>
      </trkpt>
      <trkpt lat="46.74912" lon="-0.15795">
        <ele>154.1</ele>
        <time>2019-02-03T20:58:32.505Z</time>
      </trkpt>
      <trkpt lat="46.74938" lon="-0.15814">
        <ele>156.8</ele>
        <time>2019-02-03T20:58:36.390Z</time>
      </trkpt>
      <trkpt lat="46.74955" lon="-0.15819">
        <ele>158.1</ele>
        <time>2019-02-03T20:58:38.707Z</time>
      </trkpt>
      <trkpt lat="46.74962" lon="-0.15828">
        <ele>158.6</ele>
        <time>2019-02-03T20:58:39.953Z</time>
      </trkpt>
      <trkpt lat="46.74958" lon="-0.15838">
        <ele>158.6</ele>
        <time>2019-02-03T20:58:41.013Z</time>
      </trkpt>
      <trkpt lat="46.74988" lon="-0.15864">
        <ele>160</ele>
        <time>2019-02-03T20:58:45.674Z</time>
      </trkpt>
      <trkpt lat="46.75025" lon="-0.15897">
        <ele>160.6</ele>
        <time>2019-02-03T20:58:51.467Z</time>
      </trkpt>
      <trkpt lat="46.75043" lon="-0.15918">
        <ele>160</ele>
        <time>2019-02-03T20:58:54.546Z</time>
      </trkpt>
      <trkpt lat="46.75113" lon="-0.16009">
        <ele>160</ele>
        <time>2019-02-03T20:59:07.061Z</time>
      </trkpt>
      <trkpt lat="46.75114" lon="-0.1601">
        <ele>160</ele>
        <time>2019-02-03T20:59:07.229Z</time>
      </trkpt>
      <trkpt lat="46.75122" lon="-0.16016">
        <ele>160</ele>
        <time>2019-02-03T20:59:08.431Z</time>
      </trkpt>
      <trkpt lat="46.75147" lon="-0.16043">
        <ele>160</ele>
        <time>2019-02-03T20:59:12.586Z</time>
      </trkpt>
      <trkpt lat="46.75166" lon="-0.1606">
        <ele>160</ele>
        <time>2019-02-03T20:59:15.563Z</time>
      </trkpt>
      <trkpt lat="46.75176" lon="-0.16059">
        <ele>160</ele>
        <time>2019-02-03T20:59:16.902Z</time>
      </trkpt>
      <trkpt lat="46.752" lon="-0.16044">
        <ele>159.9</ele>
        <time>2019-02-03T20:59:20.390Z</time>
      </trkpt>
      <trkpt lat="46.7521" lon="-0.16043">
        <ele>159.7</ele>
        <time>2019-02-03T20:59:21.729Z</time>
      </trkpt>
      <trkpt lat="46.75205" lon="-0.16081">
        <ele>160</ele>
        <time>2019-02-03T20:59:25.271Z</time>
      </trkpt>
      <trkpt lat="46.75195" lon="-0.16144">
        <ele>159</ele>
        <time>2019-02-03T20:59:31.190Z</time>
      </trkpt>
      <trkpt lat="46.75192" lon="-0.16182">
        <ele>158.4</ele>
        <time>2019-02-03T20:59:34.691Z</time>
      </trkpt>
      <trkpt lat="46.75184" lon="-0.16215">
        <ele>157.3</ele>
        <time>2019-02-03T20:59:37.883Z</time>
      </trkpt>
      <trkpt lat="46.75184" lon="-0.16215">
        <ele>157.3</ele>
        <time>2019-02-03T20:59:37.894Z</time>
      </trkpt>
      <trkpt lat="46.75217" lon="-0.16241">
        <ele>156.3</ele>
        <time>2019-02-03T20:59:42.904Z</time>
      </trkpt>
      <trkpt lat="46.75223" lon="-0.16247">
        <ele>156.1</ele>
        <time>2019-02-03T20:59:43.876Z</time>
      </trkpt>
      <trkpt lat="46.75228" lon="-0.16257">
        <ele>155.7</ele>
        <time>2019-02-03T20:59:45.009Z</time>
      </trkpt>
      <trkpt lat="46.75243" lon="-0.16321">
        <ele>152.9</ele>
        <time>2019-02-03T20:59:51.200Z</time>
      </trkpt>
      <trkpt lat="46.75245" lon="-0.16329">
        <ele>152.3</ele>
        <time>2019-02-03T20:59:51.980Z</time>
      </trkpt>
      <trkpt lat="46.75254" lon="-0.16333">
        <ele>152.2</ele>
        <time>2019-02-03T20:59:53.237Z</time>
      </trkpt>
      <trkpt lat="46.75293" lon="-0.16359">
        <ele>151.1</ele>
        <time>2019-02-03T20:59:58.965Z</time>
      </trkpt>
      <trkpt lat="46.75334" lon="-0.16388">
        <ele>150</ele>
        <time>2019-02-03T21:00:05.052Z</time>
      </trkpt>
      <trkpt lat="46.75347" lon="-0.16394">
        <ele>149.8</ele>
        <time>2019-02-03T21:00:06.874Z</time>
      </trkpt>
      <trkpt lat="46.75358" lon="-0.16396">
        <ele>149.7</ele>
        <time>2019-02-03T21:00:08.355Z</time>
      </trkpt>
      <trkpt lat="46.7536" lon="-0.1641">
        <ele>149.2</ele>
        <time>2019-02-03T21:00:09.664Z</time>
      </trkpt>
      <trkpt lat="46.75362" lon="-0.16415">
        <ele>149</ele>
        <time>2019-02-03T21:00:10.194Z</time>
      </trkpt>
      <trkpt lat="46.75371" lon="-0.16418">
        <ele>148.6</ele>
        <time>2019-02-03T21:00:11.427Z</time>
      </trkpt>
      <trkpt lat="46.75393" lon="-0.16435">
        <ele>147.2</ele>
        <time>2019-02-03T21:00:14.753Z</time>
      </trkpt>
      <trkpt lat="46.7541" lon="-0.16444">
        <ele>146.3</ele>
        <time>2019-02-03T21:00:17.130Z</time>
      </trkpt>
      <trkpt lat="46.7541" lon="-0.16444">
        <ele>146.3</ele>
        <time>2019-02-03T21:00:17.130Z</time>
      </trkpt>
      <trkpt lat="46.7541" lon="-0.16444">
        <ele>146.3</ele>
        <time>2019-02-03T21:00:17.166Z</time>
      </trkpt>
      <trkpt lat="46.7541" lon="-0.16443">
        <ele>146.3</ele>
        <time>2019-02-03T21:00:17.257Z</time>
      </trkpt>
      <trkpt lat="46.75433" lon="-0.16452">
        <ele>145.1</ele>
        <time>2019-02-03T21:00:20.438Z</time>
      </trkpt>
      <trkpt lat="46.7545" lon="-0.16455">
        <ele>144.3</ele>
        <time>2019-02-03T21:00:22.726Z</time>
      </trkpt>
      <trkpt lat="46.7548" lon="-0.16468">
        <ele>142</ele>
        <time>2019-02-03T21:00:26.907Z</time>
      </trkpt>
      <trkpt lat="46.75505" lon="-0.16479">
        <ele>140.4</ele>
        <time>2019-02-03T21:00:30.395Z</time>
      </trkpt>
      <trkpt lat="46.75524" lon="-0.16455">
        <ele>140.4</ele>
        <time>2019-02-03T21:00:33.752Z</time>
      </trkpt>
      <trkpt lat="46.75576" lon="-0.1641">
        <ele>139.8</ele>
        <time>2019-02-03T21:00:41.828Z</time>
      </trkpt>
      <trkpt lat="46.75614" lon="-0.16476">
        <ele>136.1</ele>
        <time>2019-02-03T21:00:49.719Z</time>
      </trkpt>
      <trkpt lat="46.75642" lon="-0.16524">
        <ele>136.6</ele>
        <time>2019-02-03T21:00:55.489Z</time>
      </trkpt>
      <trkpt lat="46.75644" lon="-0.16527">
        <ele>136.8</ele>
        <time>2019-02-03T21:00:55.872Z</time>
      </trkpt>
      <trkpt lat="46.7565" lon="-0.16525">
        <ele>137.6</ele>
        <time>2019-02-03T21:00:56.694Z</time>
      </trkpt>
      <trkpt lat="46.75651" lon="-0.16523">
        <ele>137.8</ele>
        <time>2019-02-03T21:00:56.920Z</time>
      </trkpt>
      <trkpt lat="46.75652" lon="-0.16515">
        <ele>137.9</ele>
        <time>2019-02-03T21:00:57.664Z</time>
      </trkpt>
      <trkpt lat="46.75656" lon="-0.16511">
        <ele>138.3</ele>
        <time>2019-02-03T21:00:58.312Z</time>
      </trkpt>
      <trkpt lat="46.75665" lon="-0.16508">
        <ele>139.1</ele>
        <time>2019-02-03T21:00:59.545Z</time>
      </trkpt>
      <trkpt lat="46.75681" lon="-0.1651">
        <ele>141.2</ele>
        <time>2019-02-03T21:01:01.690Z</time>
      </trkpt>
      <trkpt lat="46.75699" lon="-0.16517">
        <ele>143.5</ele>
        <time>2019-02-03T21:01:04.179Z</time>
      </trkpt>
      <trkpt lat="46.75722" lon="-0.16538">
        <ele>146</ele>
        <time>2019-02-03T21:01:07.803Z</time>
      </trkpt>
      <trkpt lat="46.75729" lon="-0.16545">
        <ele>146.5</ele>
        <time>2019-02-03T21:01:08.937Z</time>
      </trkpt>
      <trkpt lat="46.75744" lon="-0.16553">
        <ele>147.6</ele>
        <time>2019-02-03T21:01:11.071Z</time>
      </trkpt>
      <trkpt lat="46.75749" lon="-0.16558">
        <ele>147.9</ele>
        <time>2019-02-03T21:01:11.881Z</time>
      </trkpt>
      <trkpt lat="46.7575" lon="-0.16564">
        <ele>148</ele>
        <time>2019-02-03T21:01:12.446Z</time>
      </trkpt>
      <trkpt lat="46.7575" lon="-0.16586">
        <ele>148</ele>
        <time>2019-02-03T21:01:14.460Z</time>
      </trkpt>
      <trkpt lat="46.75772" lon="-0.16589">
        <ele>148.8</ele>
        <time>2019-02-03T21:01:17.412Z</time>
      </trkpt>
      <trkpt lat="46.75787" lon="-0.16589">
        <ele>149.7</ele>
        <time>2019-02-03T21:01:19.416Z</time>
      </trkpt>
      <trkpt lat="46.75794" lon="-0.16592">
        <ele>150.2</ele>
        <time>2019-02-03T21:01:20.391Z</time>
      </trkpt>
      <trkpt lat="46.75802" lon="-0.16598">
        <ele>150.7</ele>
        <time>2019-02-03T21:01:21.593Z</time>
      </trkpt>
      <trkpt lat="46.75809" lon="-0.16605">
        <ele>151.1</ele>
        <time>2019-02-03T21:01:22.727Z</time>
      </trkpt>
      <trkpt lat="46.7582" lon="-0.1661">
        <ele>151.5</ele>
        <time>2019-02-03T21:01:24.266Z</time>
      </trkpt>
      <trkpt lat="46.75849" lon="-0.1662">
        <ele>152.2</ele>
        <time>2019-02-03T21:01:28.247Z</time>
      </trkpt>
      <trkpt lat="46.75874" lon="-0.16627">
        <ele>152.4</ele>
        <time>2019-02-03T21:01:31.648Z</time>
      </trkpt>
      <trkpt lat="46.75888" lon="-0.16629">
        <ele>152.4</ele>
        <time>2019-02-03T21:01:33.527Z</time>
      </trkpt>
      <trkpt lat="46.75911" lon="-0.16628">
        <ele>152.4</ele>
        <time>2019-02-03T21:01:36.601Z</time>
      </trkpt>
      <trkpt lat="46.75917" lon="-0.16641">
        <ele>152</ele>
        <time>2019-02-03T21:01:38.036Z</time>
      </trkpt>
      <trkpt lat="46.7596" lon="-0.16702">
        <ele>149.6</ele>
        <time>2019-02-03T21:01:46.047Z</time>
      </trkpt>
      <trkpt lat="46.75996" lon="-0.16757">
        <ele>145.6</ele>
        <time>2019-02-03T21:01:53.009Z</time>
      </trkpt>
      <trkpt lat="46.76015" lon="-0.16788">
        <ele>142.7</ele>
        <time>2019-02-03T21:01:56.816Z</time>
      </trkpt>
      <trkpt lat="46.7603" lon="-0.16807">
        <ele>140.6</ele>
        <time>2019-02-03T21:01:59.469Z</time>
      </trkpt>
      <trkpt lat="46.7604" lon="-0.16822">
        <ele>138.3</ele>
        <time>2019-02-03T21:02:01.385Z</time>
      </trkpt>
      <trkpt lat="46.76064" lon="-0.1688">
        <ele>134.3</ele>
        <time>2019-02-03T21:02:07.586Z</time>
      </trkpt>
      <trkpt lat="46.76079" lon="-0.16909">
        <ele>131.7</ele>
        <time>2019-02-03T21:02:10.912Z</time>
      </trkpt>
      <trkpt lat="46.76108" lon="-0.16949">
        <ele>128.2</ele>
        <time>2019-02-03T21:02:16.242Z</time>
      </trkpt>
      <trkpt lat="46.76122" lon="-0.16964">
        <ele>126.2</ele>
        <time>2019-02-03T21:02:18.495Z</time>
      </trkpt>
      <trkpt lat="46.76122" lon="-0.16964">
        <ele>126.1</ele>
        <time>2019-02-03T21:02:18.562Z</time>
      </trkpt>
      <trkpt lat="46.76122" lon="-0.16964">
        <ele>126.1</ele>
        <time>2019-02-03T21:02:18.578Z</time>
      </trkpt>
      <trkpt lat="46.76127" lon="-0.16969">
        <ele>125.4</ele>
        <time>2019-02-03T21:02:19.406Z</time>
      </trkpt>
      <trkpt lat="46.76153" lon="-0.17004">
        <ele>122.4</ele>
        <time>2019-02-03T21:02:24.131Z</time>
      </trkpt>
      <trkpt lat="46.76169" lon="-0.17031">
        <ele>120.6</ele>
        <time>2019-02-03T21:02:27.398Z</time>
      </trkpt>
      <trkpt lat="46.76205" lon="-0.17097">
        <ele>115.4</ele>
        <time>2019-02-03T21:02:35.119Z</time>
      </trkpt>
      <trkpt lat="46.76211" lon="-0.17113">
        <ele>114.1</ele>
        <time>2019-02-03T21:02:36.788Z</time>
      </trkpt>
      <trkpt lat="46.76184" lon="-0.17161">
        <ele>113.7</ele>
        <time>2019-02-03T21:02:42.472Z</time>
      </trkpt>
      <trkpt lat="46.76194" lon="-0.17171">
        <ele>112.9</ele>
        <time>2019-02-03T21:02:44.091Z</time>
      </trkpt>
      <trkpt lat="46.76214" lon="-0.17197">
        <ele>111.2</ele>
        <time>2019-02-03T21:02:47.669Z</time>
      </trkpt>
      <trkpt lat="46.7622" lon="-0.17206">
        <ele>110.7</ele>
        <time>2019-02-03T21:02:48.818Z</time>
      </trkpt>
      <trkpt lat="46.76241" lon="-0.17231">
        <ele>108.8</ele>
        <time>2019-02-03T21:02:52.438Z</time>
      </trkpt>
      <trkpt lat="46.76257" lon="-0.17244">
        <ele>106.8</ele>
        <time>2019-02-03T21:02:54.884Z</time>
      </trkpt>
      <trkpt lat="46.76288" lon="-0.17267">
        <ele>102.3</ele>
        <time>2019-02-03T21:02:59.530Z</time>
      </trkpt>
      <trkpt lat="46.76299" lon="-0.17279">
        <ele>101</ele>
        <time>2019-02-03T21:03:01.365Z</time>
      </trkpt>
      <trkpt lat="46.76312" lon="-0.17298">
        <ele>99</ele>
        <time>2019-02-03T21:03:03.823Z</time>
      </trkpt>
      <trkpt lat="46.76323" lon="-0.17318">
        <ele>96.3</ele>
        <time>2019-02-03T21:03:06.170Z</time>
      </trkpt>
      <trkpt lat="46.76332" lon="-0.17329">
        <ele>94.3</ele>
        <time>2019-02-03T21:03:07.738Z</time>
      </trkpt>
      <trkpt lat="46.76343" lon="-0.17334">
        <ele>92.3</ele>
        <time>2019-02-03T21:03:09.277Z</time>
      </trkpt>
      <trkpt lat="46.76363" lon="-0.1733">
        <ele>88.8</ele>
        <time>2019-02-03T21:03:11.974Z</time>
      </trkpt>
      <trkpt lat="46.76398" lon="-0.17315">
        <ele>86.7</ele>
        <time>2019-02-03T21:03:16.847Z</time>
      </trkpt>
      <trkpt lat="46.76416" lon="-0.17277">
        <ele>85.1</ele>
        <time>2019-02-03T21:03:21.075Z</time>
      </trkpt>
      <trkpt lat="46.76409" lon="-0.17224">
        <ele>86.4</ele>
        <time>2019-02-03T21:03:26.015Z</time>
      </trkpt>
      <trkpt lat="46.76411" lon="-0.1722">
        <ele>86.7</ele>
        <time>2019-02-03T21:03:26.468Z</time>
      </trkpt>
      <trkpt lat="46.76459" lon="-0.17184">
        <ele>92.5</ele>
        <time>2019-02-03T21:03:33.677Z</time>
      </trkpt>
      <trkpt lat="46.76461" lon="-0.17172">
        <ele>93.3</ele>
        <time>2019-02-03T21:03:34.807Z</time>
      </trkpt>
      <trkpt lat="46.76462" lon="-0.17166">
        <ele>93.8</ele>
        <time>2019-02-03T21:03:35.414Z</time>
      </trkpt>
      <trkpt lat="46.76462" lon="-0.17165">
        <ele>93.8</ele>
        <time>2019-02-03T21:03:35.488Z</time>
      </trkpt>
      <trkpt lat="46.76462" lon="-0.17165">
        <ele>93.8</ele>
        <time>2019-02-03T21:03:35.516Z</time>
      </trkpt>
      <trkpt lat="46.76463" lon="-0.17155">
        <ele>94</ele>
        <time>2019-02-03T21:03:36.441Z</time>
      </trkpt>
      <trkpt lat="46.76472" lon="-0.1715">
        <ele>96</ele>
        <time>2019-02-03T21:03:37.728Z</time>
      </trkpt>
      <trkpt lat="46.76477" lon="-0.17151">
        <ele>96.9</ele>
        <time>2019-02-03T21:03:38.402Z</time>
      </trkpt>
      <trkpt lat="46.76501" lon="-0.17165">
        <ele>100.3</ele>
        <time>2019-02-03T21:03:41.855Z</time>
      </trkpt>
      <trkpt lat="46.7652" lon="-0.17188">
        <ele>102.8</ele>
        <time>2019-02-03T21:03:45.152Z</time>
      </trkpt>
      <trkpt lat="46.76548" lon="-0.17227">
        <ele>105.5</ele>
        <time>2019-02-03T21:03:50.322Z</time>
      </trkpt>
      <trkpt lat="46.76579" lon="-0.17255">
        <ele>108.9</ele>
        <time>2019-02-03T21:03:55.220Z</time>
      </trkpt>
      <trkpt lat="46.7658" lon="-0.17256">
        <ele>108.9</ele>
        <time>2019-02-03T21:03:55.354Z</time>
      </trkpt>
      <trkpt lat="46.76588" lon="-0.17262">
        <ele>109.3</ele>
        <time>2019-02-03T21:03:56.556Z</time>
      </trkpt>
      <trkpt lat="46.76605" lon="-0.17269">
        <ele>110</ele>
        <time>2019-02-03T21:03:58.916Z</time>
      </trkpt>
      <trkpt lat="46.76629" lon="-0.17269">
        <ele>111</ele>
        <time>2019-02-03T21:04:02.122Z</time>
      </trkpt>
      <trkpt lat="46.76652" lon="-0.17259">
        <ele>112</ele>
        <time>2019-02-03T21:04:05.328Z</time>
      </trkpt>
      <trkpt lat="46.76666" lon="-0.1725">
        <ele>114</ele>
        <time>2019-02-03T21:04:07.372Z</time>
      </trkpt>
      <trkpt lat="46.7667" lon="-0.17248">
        <ele>113.4</ele>
        <time>2019-02-03T21:04:07.937Z</time>
      </trkpt>
      <trkpt lat="46.76674" lon="-0.1725">
        <ele>112.7</ele>
        <time>2019-02-03T21:04:08.502Z</time>
      </trkpt>
      <trkpt lat="46.76684" lon="-0.17263">
        <ele>111.8</ele>
        <time>2019-02-03T21:04:10.291Z</time>
      </trkpt>
      <trkpt lat="46.76691" lon="-0.17274">
        <ele>113.6</ele>
        <time>2019-02-03T21:04:11.665Z</time>
      </trkpt>
      <trkpt lat="46.76696" lon="-0.17276">
        <ele>114.7</ele>
        <time>2019-02-03T21:04:12.358Z</time>
      </trkpt>
      <trkpt lat="46.767" lon="-0.17274">
        <ele>114.7</ele>
        <time>2019-02-03T21:04:12.923Z</time>
      </trkpt>
      <trkpt lat="46.76729" lon="-0.17248">
        <ele>115.8</ele>
        <time>2019-02-03T21:04:17.470Z</time>
      </trkpt>
      <trkpt lat="46.76747" lon="-0.17235">
        <ele>115.9</ele>
        <time>2019-02-03T21:04:20.153Z</time>
      </trkpt>
      <trkpt lat="46.76766" lon="-0.1723">
        <ele>117</ele>
        <time>2019-02-03T21:04:22.732Z</time>
      </trkpt>
      <trkpt lat="46.76801" lon="-0.17224">
        <ele>118.7</ele>
        <time>2019-02-03T21:04:27.440Z</time>
      </trkpt>
      <trkpt lat="46.76829" lon="-0.17217">
        <ele>119.5</ele>
        <time>2019-02-03T21:04:31.235Z</time>
      </trkpt>
      <trkpt lat="46.76866" lon="-0.17203">
        <ele>119.6</ele>
        <time>2019-02-03T21:04:36.341Z</time>
      </trkpt>
      <trkpt lat="46.7689" lon="-0.17194">
        <ele>119</ele>
        <time>2019-02-03T21:04:39.651Z</time>
      </trkpt>
      <trkpt lat="46.769" lon="-0.17192">
        <ele>118.9</ele>
        <time>2019-02-03T21:04:40.999Z</time>
      </trkpt>
      <trkpt lat="46.7691" lon="-0.17195">
        <ele>119</ele>
        <time>2019-02-03T21:04:42.363Z</time>
      </trkpt>
      <trkpt lat="46.7692" lon="-0.17202">
        <ele>119.5</ele>
        <time>2019-02-03T21:04:43.845Z</time>
      </trkpt>
      <trkpt lat="46.76978" lon="-0.17261">
        <ele>120.9</ele>
        <time>2019-02-03T21:04:53.289Z</time>
      </trkpt>
      <trkpt lat="46.77028" lon="-0.17312">
        <ele>120.2</ele>
        <time>2019-02-03T21:05:01.437Z</time>
      </trkpt>
      <trkpt lat="46.77055" lon="-0.17335">
        <ele>120.1</ele>
        <time>2019-02-03T21:05:05.613Z</time>
      </trkpt>
      <trkpt lat="46.77079" lon="-0.17347">
        <ele>120.1</ele>
        <time>2019-02-03T21:05:09.002Z</time>
      </trkpt>
      <trkpt lat="46.77106" lon="-0.17357">
        <ele>120.6</ele>
        <time>2019-02-03T21:05:12.723Z</time>
      </trkpt>
      <trkpt lat="46.77114" lon="-0.17366">
        <ele>121.1</ele>
        <time>2019-02-03T21:05:14.072Z</time>
      </trkpt>
      <trkpt lat="46.7713" lon="-0.17365">
        <ele>120.5</ele>
        <time>2019-02-03T21:05:16.211Z</time>
      </trkpt>
      <trkpt lat="46.77153" lon="-0.17364">
        <ele>120.1</ele>
        <time>2019-02-03T21:05:19.285Z</time>
      </trkpt>
      <trkpt lat="46.77186" lon="-0.17368">
        <ele>119.6</ele>
        <time>2019-02-03T21:05:23.709Z</time>
      </trkpt>
      <trkpt lat="46.77243" lon="-0.1738">
        <ele>117.3</ele>
        <time>2019-02-03T21:05:31.403Z</time>
      </trkpt>
      <trkpt lat="46.77276" lon="-0.17385">
        <ele>116.7</ele>
        <time>2019-02-03T21:05:35.835Z</time>
      </trkpt>
      <trkpt lat="46.77304" lon="-0.17384">
        <ele>116.8</ele>
        <time>2019-02-03T21:05:39.577Z</time>
      </trkpt>
      <trkpt lat="46.7731" lon="-0.17383">
        <ele>116.8</ele>
        <time>2019-02-03T21:05:40.384Z</time>
      </trkpt>
      <trkpt lat="46.77315" lon="-0.17398">
        <ele>117</ele>
        <time>2019-02-03T21:05:41.910Z</time>
      </trkpt>
      <trkpt lat="46.77322" lon="-0.17411">
        <ele>117</ele>
        <time>2019-02-03T21:05:43.423Z</time>
      </trkpt>
      <trkpt lat="46.77329" lon="-0.17419">
        <ele>117.1</ele>
        <time>2019-02-03T21:05:44.611Z</time>
      </trkpt>
      <trkpt lat="46.77337" lon="-0.17424">
        <ele>117.4</ele>
        <time>2019-02-03T21:05:45.774Z</time>
      </trkpt>
      <trkpt lat="46.77388" lon="-0.17443">
        <ele>118.9</ele>
        <time>2019-02-03T21:05:52.806Z</time>
      </trkpt>
      <trkpt lat="46.77404" lon="-0.1745">
        <ele>119.3</ele>
        <time>2019-02-03T21:05:55.037Z</time>
      </trkpt>
      <trkpt lat="46.77423" lon="-0.17463">
        <ele>120.3</ele>
        <time>2019-02-03T21:05:57.840Z</time>
      </trkpt>
      <trkpt lat="46.77452" lon="-0.17496">
        <ele>121.9</ele>
        <time>2019-02-03T21:06:02.752Z</time>
      </trkpt>
      <trkpt lat="46.77509" lon="-0.17562">
        <ele>126.3</ele>
        <time>2019-02-03T21:06:12.471Z</time>
      </trkpt>
      <trkpt lat="46.77522" lon="-0.17574">
        <ele>128.1</ele>
        <time>2019-02-03T21:06:14.526Z</time>
      </trkpt>
      <trkpt lat="46.77529" lon="-0.17576">
        <ele>128.5</ele>
        <time>2019-02-03T21:06:15.479Z</time>
      </trkpt>
      <trkpt lat="46.77539" lon="-0.17576">
        <ele>128.9</ele>
        <time>2019-02-03T21:06:16.815Z</time>
      </trkpt>
      <trkpt lat="46.77561" lon="-0.17573">
        <ele>129.5</ele>
        <time>2019-02-03T21:06:19.767Z</time>
      </trkpt>
      <trkpt lat="46.7759" lon="-0.1757">
        <ele>130.4</ele>
        <time>2019-02-03T21:06:23.651Z</time>
      </trkpt>
      <trkpt lat="46.77597" lon="-0.17571">
        <ele>130.8</ele>
        <time>2019-02-03T21:06:24.591Z</time>
      </trkpt>
      <trkpt lat="46.77607" lon="-0.17578">
        <ele>131.6</ele>
        <time>2019-02-03T21:06:26.073Z</time>
      </trkpt>
      <trkpt lat="46.77622" lon="-0.17587">
        <ele>132.6</ele>
        <time>2019-02-03T21:06:28.240Z</time>
      </trkpt>
      <trkpt lat="46.77629" lon="-0.17592">
        <ele>133.1</ele>
        <time>2019-02-03T21:06:29.281Z</time>
      </trkpt>
      <trkpt lat="46.77628" lon="-0.17597">
        <ele>133.3</ele>
        <time>2019-02-03T21:06:29.757Z</time>
      </trkpt>
      <trkpt lat="46.77627" lon="-0.17605">
        <ele>133.7</ele>
        <time>2019-02-03T21:06:30.501Z</time>
      </trkpt>
      <trkpt lat="46.77627" lon="-0.17615">
        <ele>134.1</ele>
        <time>2019-02-03T21:06:31.416Z</time>
      </trkpt>
      <trkpt lat="46.77632" lon="-0.17645">
        <ele>135</ele>
        <time>2019-02-03T21:06:34.241Z</time>
      </trkpt>
      <trkpt lat="46.77634" lon="-0.17655">
        <ele>135</ele>
        <time>2019-02-03T21:06:35.194Z</time>
      </trkpt>
      <trkpt lat="46.77633" lon="-0.17671">
        <ele>135.2</ele>
        <time>2019-02-03T21:06:36.664Z</time>
      </trkpt>
      <trkpt lat="46.77628" lon="-0.17767">
        <ele>136.4</ele>
        <time>2019-02-03T21:06:45.473Z</time>
      </trkpt>
      <trkpt lat="46.77628" lon="-0.17767">
        <ele>136.4</ele>
        <time>2019-02-03T21:06:45.501Z</time>
      </trkpt>
      <trkpt lat="46.7763" lon="-0.17851">
        <ele>135.9</ele>
        <time>2019-02-03T21:06:53.162Z</time>
      </trkpt>
      <trkpt lat="46.77636" lon="-0.18007">
        <ele>130</ele>
        <time>2019-02-03T21:07:07.457Z</time>
      </trkpt>
      <trkpt lat="46.77644" lon="-0.18092">
        <ele>125.8</ele>
        <time>2019-02-03T21:07:15.307Z</time>
      </trkpt>
      <trkpt lat="46.77649" lon="-0.18134">
        <ele>124.7</ele>
        <time>2019-02-03T21:07:19.207Z</time>
      </trkpt>
      <trkpt lat="46.77646" lon="-0.18141">
        <ele>124.7</ele>
        <time>2019-02-03T21:07:19.962Z</time>
      </trkpt>
      <trkpt lat="46.77645" lon="-0.18146">
        <ele>124.5</ele>
        <time>2019-02-03T21:07:20.439Z</time>
      </trkpt>
      <trkpt lat="46.77642" lon="-0.18157">
        <ele>124.2</ele>
        <time>2019-02-03T21:07:21.522Z</time>
      </trkpt>
      <trkpt lat="46.77632" lon="-0.18226">
        <ele>122.7</ele>
        <time>2019-02-03T21:07:27.975Z</time>
      </trkpt>
      <trkpt lat="46.77616" lon="-0.18312">
        <ele>122.4</ele>
        <time>2019-02-03T21:07:36.129Z</time>
      </trkpt>
      <trkpt lat="46.77608" lon="-0.18339">
        <ele>121.9</ele>
        <time>2019-02-03T21:07:38.821Z</time>
      </trkpt>
      <trkpt lat="46.77597" lon="-0.18364">
        <ele>121.9</ele>
        <time>2019-02-03T21:07:41.540Z</time>
      </trkpt>
      <trkpt lat="46.77584" lon="-0.18393">
        <ele>121.7</ele>
        <time>2019-02-03T21:07:44.711Z</time>
      </trkpt>
      <trkpt lat="46.77553" lon="-0.18435">
        <ele>121.4</ele>
        <time>2019-02-03T21:07:50.361Z</time>
      </trkpt>
      <trkpt lat="46.77543" lon="-0.18446">
        <ele>121.4</ele>
        <time>2019-02-03T21:07:52.034Z</time>
      </trkpt>
      <trkpt lat="46.77528" lon="-0.18456">
        <ele>121.6</ele>
        <time>2019-02-03T21:07:54.237Z</time>
      </trkpt>
      <trkpt lat="46.77499" lon="-0.18475">
        <ele>122.8</ele>
        <time>2019-02-03T21:07:58.483Z</time>
      </trkpt>
      <trkpt lat="46.77474" lon="-0.18497">
        <ele>122.9</ele>
        <time>2019-02-03T21:08:02.383Z</time>
      </trkpt>
      <trkpt lat="46.77442" lon="-0.18532">
        <ele>123</ele>
        <time>2019-02-03T21:08:07.724Z</time>
      </trkpt>
      <trkpt lat="46.77414" lon="-0.18568">
        <ele>123.7</ele>
        <time>2019-02-03T21:08:12.708Z</time>
      </trkpt>
      <trkpt lat="46.77408" lon="-0.1858">
        <ele>123.7</ele>
        <time>2019-02-03T21:08:14.067Z</time>
      </trkpt>
      <trkpt lat="46.77402" lon="-0.18594">
        <ele>123.9</ele>
        <time>2019-02-03T21:08:15.578Z</time>
      </trkpt>
      <trkpt lat="46.7738" lon="-0.18685">
        <ele>122.2</ele>
        <time>2019-02-03T21:08:24.408Z</time>
      </trkpt>
      <trkpt lat="46.77375" lon="-0.18704">
        <ele>122.2</ele>
        <time>2019-02-03T21:08:26.270Z</time>
      </trkpt>
      <trkpt lat="46.77366" lon="-0.18727">
        <ele>122.2</ele>
        <time>2019-02-03T21:08:28.694Z</time>
      </trkpt>
      <trkpt lat="46.77345" lon="-0.18762">
        <ele>122.5</ele>
        <time>2019-02-03T21:08:32.951Z</time>
      </trkpt>
      <trkpt lat="46.77315" lon="-0.18798">
        <ele>123.8</ele>
        <time>2019-02-03T21:08:38.139Z</time>
      </trkpt>
      <trkpt lat="46.77273" lon="-0.18835">
        <ele>125.1</ele>
        <time>2019-02-03T21:08:44.692Z</time>
      </trkpt>
      <trkpt lat="46.77232" lon="-0.18862">
        <ele>126.3</ele>
        <time>2019-02-03T21:08:50.701Z</time>
      </trkpt>
      <trkpt lat="46.77202" lon="-0.1888">
        <ele>127</ele>
        <time>2019-02-03T21:08:55.034Z</time>
      </trkpt>
      <trkpt lat="46.77189" lon="-0.1889">
        <ele>127.2</ele>
        <time>2019-02-03T21:08:56.997Z</time>
      </trkpt>
      <trkpt lat="46.77142" lon="-0.18937">
        <ele>127.2</ele>
        <time>2019-02-03T21:09:04.627Z</time>
      </trkpt>
      <trkpt lat="46.77141" lon="-0.18938">
        <ele>127.2</ele>
        <time>2019-02-03T21:09:04.769Z</time>
      </trkpt>
      <trkpt lat="46.77116" lon="-0.18961">
        <ele>127.3</ele>
        <time>2019-02-03T21:09:08.691Z</time>
      </trkpt>
      <trkpt lat="46.77102" lon="-0.18975">
        <ele>127</ele>
        <time>2019-02-03T21:09:10.956Z</time>
      </trkpt>
      <trkpt lat="46.77101" lon="-0.18976">
        <ele>127</ele>
        <time>2019-02-03T21:09:11.101Z</time>
      </trkpt>
      <trkpt lat="46.77079" lon="-0.18988">
        <ele>126.9</ele>
        <time>2019-02-03T21:09:14.326Z</time>
      </trkpt>
      <trkpt lat="46.77079" lon="-0.18988">
        <ele>126.9</ele>
        <time>2019-02-03T21:09:14.326Z</time>
      </trkpt>
      <trkpt lat="46.77071" lon="-0.19004">
        <ele>126.4</ele>
        <time>2019-02-03T21:09:16.082Z</time>
      </trkpt>
      <trkpt lat="46.77071" lon="-0.19004">
        <ele>126.4</ele>
        <time>2019-02-03T21:09:16.082Z</time>
      </trkpt>
      <trkpt lat="46.77037" lon="-0.19002">
        <ele>125.2</ele>
        <time>2019-02-03T21:09:20.646Z</time>
      </trkpt>
      <trkpt lat="46.77037" lon="-0.19002">
        <ele>125.2</ele>
        <time>2019-02-03T21:09:20.646Z</time>
      </trkpt>
      <trkpt lat="46.7704" lon="-0.19032">
        <ele>124.3</ele>
        <time>2019-02-03T21:09:23.436Z</time>
      </trkpt>
      <trkpt lat="46.7704" lon="-0.19032">
        <ele>124.3</ele>
        <time>2019-02-03T21:09:23.436Z</time>
      </trkpt>
      <trkpt lat="46.7702" lon="-0.19032">
        <ele>123.2</ele>
        <time>2019-02-03T21:09:26.182Z</time>
      </trkpt>
      <trkpt lat="46.7702" lon="-0.19032">
        <ele>123.2</ele>
        <time>2019-02-03T21:09:26.182Z</time>
      </trkpt>
      <trkpt lat="46.76963" lon="-0.1899">
        <ele>121.7</ele>
        <time>2019-02-03T21:09:34.632Z</time>
      </trkpt>
      <trkpt lat="46.76963" lon="-0.1899">
        <ele>121.7</ele>
        <time>2019-02-03T21:09:34.632Z</time>
      </trkpt>
      <trkpt lat="46.76946" lon="-0.18978">
        <ele>122.6</ele>
        <time>2019-02-03T21:09:37.224Z</time>
      </trkpt>
      <trkpt lat="46.76946" lon="-0.18978">
        <ele>122.6</ele>
        <time>2019-02-03T21:09:37.240Z</time>
      </trkpt>
      <trkpt lat="46.76914" lon="-0.19004">
        <ele>120.9</ele>
        <time>2019-02-03T21:09:42.105Z</time>
      </trkpt>
      <trkpt lat="46.76914" lon="-0.19004">
        <ele>120.9</ele>
        <time>2019-02-03T21:09:42.128Z</time>
      </trkpt>
      <trkpt lat="46.7688" lon="-0.18988">
        <ele>122</ele>
        <time>2019-02-03T21:09:46.886Z</time>
      </trkpt>
      <trkpt lat="46.76879" lon="-0.18988">
        <ele>122</ele>
        <time>2019-02-03T21:09:46.909Z</time>
      </trkpt>
      <trkpt lat="46.76759" lon="-0.18998">
        <ele>122.4</ele>
        <time>2019-02-03T21:10:03.008Z</time>
      </trkpt>
      <trkpt lat="46.76759" lon="-0.18998">
        <ele>122.4</ele>
        <time>2019-02-03T21:10:03.031Z</time>
      </trkpt>
      <trkpt lat="46.76665" lon="-0.19004">
        <ele>120.8</ele>
        <time>2019-02-03T21:10:15.540Z</time>
      </trkpt>
      <trkpt lat="46.76665" lon="-0.19004">
        <ele>120.8</ele>
        <time>2019-02-03T21:10:15.563Z</time>
      </trkpt>
      <trkpt lat="46.76632" lon="-0.18991">
        <ele>119.6</ele>
        <time>2019-02-03T21:10:20.126Z</time>
      </trkpt>
      <trkpt lat="46.76632" lon="-0.1899">
        <ele>119.6</ele>
        <time>2019-02-03T21:10:20.146Z</time>
      </trkpt>
      <trkpt lat="46.76617" lon="-0.1897">
        <ele>119.1</ele>
        <time>2019-02-03T21:10:22.974Z</time>
      </trkpt>
      <trkpt lat="46.76616" lon="-0.18969">
        <ele>119.1</ele>
        <time>2019-02-03T21:10:22.997Z</time>
      </trkpt>
      <trkpt lat="46.76545" lon="-0.1876">
        <ele>117.4</ele>
        <time>2019-02-03T21:10:44.381Z</time>
      </trkpt>
      <trkpt lat="46.76545" lon="-0.1876">
        <ele>117.4</ele>
        <time>2019-02-03T21:10:44.397Z</time>
      </trkpt>
      <trkpt lat="46.76481" lon="-0.18574">
        <ele>120.4</ele>
        <time>2019-02-03T21:11:03.499Z</time>
      </trkpt>
      <trkpt lat="46.7648" lon="-0.18574">
        <ele>120.5</ele>
        <time>2019-02-03T21:11:03.522Z</time>
      </trkpt>
      <trkpt lat="46.76389" lon="-0.18433">
        <ele>122</ele>
        <time>2019-02-03T21:11:21.213Z</time>
      </trkpt>
      <trkpt lat="46.76389" lon="-0.18433">
        <ele>122</ele>
        <time>2019-02-03T21:11:21.243Z</time>
      </trkpt>
      <trkpt lat="46.7628" lon="-0.18589">
        <ele>119</ele>
        <time>2019-02-03T21:11:41.696Z</time>
      </trkpt>
      <trkpt lat="46.76279" lon="-0.18589">
        <ele>119</ele>
        <time>2019-02-03T21:11:41.724Z</time>
      </trkpt>
      <trkpt lat="46.76268" lon="-0.18585">
        <ele>118.7</ele>
        <time>2019-02-03T21:11:43.267Z</time>
      </trkpt>
      <trkpt lat="46.76268" lon="-0.18585">
        <ele>118.6</ele>
        <time>2019-02-03T21:11:43.295Z</time>
      </trkpt>
      <trkpt lat="46.76094" lon="-0.18825">
        <ele>119.4</ele>
        <time>2019-02-03T21:12:15.250Z</time>
      </trkpt>
      <trkpt lat="46.76094" lon="-0.18826">
        <ele>119.4</ele>
        <time>2019-02-03T21:12:15.278Z</time>
      </trkpt>
      <trkpt lat="46.76087" lon="-0.1886">
        <ele>120.8</ele>
        <time>2019-02-03T21:12:18.576Z</time>
      </trkpt>
      <trkpt lat="46.76086" lon="-0.1886">
        <ele>120.9</ele>
        <time>2019-02-03T21:12:18.604Z</time>
      </trkpt>
      <trkpt lat="46.76085" lon="-0.18862">
        <ele>120.9</ele>
        <time>2019-02-03T21:12:18.864Z</time>
      </trkpt>
      <trkpt lat="46.76085" lon="-0.18861">
        <ele>120.9</ele>
        <time>2019-02-03T21:12:18.931Z</time>
      </trkpt>
      <trkpt lat="46.75949" lon="-0.19013">
        <ele>128.3</ele>
        <time>2019-02-03T21:12:41.796Z</time>
      </trkpt>
      <trkpt lat="46.75952" lon="-0.18976">
        <ele>126.9</ele>
        <time>2019-02-03T21:12:45.206Z</time>
      </trkpt>
      <trkpt lat="46.75952" lon="-0.1895">
        <ele>125.3</ele>
        <time>2019-02-03T21:12:47.586Z</time>
      </trkpt>
      <trkpt lat="46.75943" lon="-0.18858">
        <ele>123.1</ele>
        <time>2019-02-03T21:12:56.091Z</time>
      </trkpt>
      <trkpt lat="46.75934" lon="-0.18748">
        <ele>121.3</ele>
        <time>2019-02-03T21:13:06.230Z</time>
      </trkpt>
      <trkpt lat="46.75935" lon="-0.18717">
        <ele>120.3</ele>
        <time>2019-02-03T21:13:09.070Z</time>
      </trkpt>
      <trkpt lat="46.7594" lon="-0.18683">
        <ele>119.9</ele>
        <time>2019-02-03T21:13:12.253Z</time>
      </trkpt>
      <trkpt lat="46.7595" lon="-0.18634">
        <ele>119.6</ele>
        <time>2019-02-03T21:13:16.932Z</time>
      </trkpt>
      <trkpt lat="46.75951" lon="-0.18619">
        <ele>119.7</ele>
        <time>2019-02-03T21:13:18.311Z</time>
      </trkpt>
      <trkpt lat="46.75949" lon="-0.18598">
        <ele>119.8</ele>
        <time>2019-02-03T21:13:20.251Z</time>
      </trkpt>
      <trkpt lat="46.7594" lon="-0.18552">
        <ele>119.9</ele>
        <time>2019-02-03T21:13:24.629Z</time>
      </trkpt>
      <trkpt lat="46.75934" lon="-0.18536">
        <ele>119.9</ele>
        <time>2019-02-03T21:13:26.298Z</time>
      </trkpt>
      <trkpt lat="46.75921" lon="-0.18513">
        <ele>120.4</ele>
        <time>2019-02-03T21:13:29.027Z</time>
      </trkpt>
      <trkpt lat="46.75896" lon="-0.18475">
        <ele>119.5</ele>
        <time>2019-02-03T21:13:33.849Z</time>
      </trkpt>
      <trkpt lat="46.75868" lon="-0.18413">
        <ele>116.9</ele>
        <time>2019-02-03T21:13:40.645Z</time>
      </trkpt>
      <trkpt lat="46.75825" lon="-0.18348">
        <ele>116.3</ele>
        <time>2019-02-03T21:13:48.915Z</time>
      </trkpt>
      <trkpt lat="46.75775" lon="-0.18253">
        <ele>118</ele>
        <time>2019-02-03T21:13:59.879Z</time>
      </trkpt>
      <trkpt lat="46.75764" lon="-0.1823">
        <ele>117.6</ele>
        <time>2019-02-03T21:14:02.446Z</time>
      </trkpt>
      <trkpt lat="46.75754" lon="-0.18206">
        <ele>117.4</ele>
        <time>2019-02-03T21:14:05.017Z</time>
      </trkpt>
      <trkpt lat="46.75726" lon="-0.18119">
        <ele>117.1</ele>
        <time>2019-02-03T21:14:13.815Z</time>
      </trkpt>
      <trkpt lat="46.75697" lon="-0.18023">
        <ele>115.5</ele>
        <time>2019-02-03T21:14:23.418Z</time>
      </trkpt>
      <trkpt lat="46.75682" lon="-0.17988">
        <ele>113.8</ele>
        <time>2019-02-03T21:14:27.197Z</time>
      </trkpt>
      <trkpt lat="46.75679" lon="-0.17976">
        <ele>113.3</ele>
        <time>2019-02-03T21:14:28.366Z</time>
      </trkpt>
      <trkpt lat="46.75678" lon="-0.17955">
        <ele>111.3</ele>
        <time>2019-02-03T21:14:30.293Z</time>
      </trkpt>
      <trkpt lat="46.75679" lon="-0.17935">
        <ele>109.6</ele>
        <time>2019-02-03T21:14:32.128Z</time>
      </trkpt>
      <trkpt lat="46.75681" lon="-0.17923">
        <ele>108.8</ele>
        <time>2019-02-03T21:14:33.258Z</time>
      </trkpt>
      <trkpt lat="46.75679" lon="-0.17921">
        <ele>108.8</ele>
        <time>2019-02-03T21:14:33.566Z</time>
      </trkpt>
      <trkpt lat="46.75679" lon="-0.1792">
        <ele>108.8</ele>
        <time>2019-02-03T21:14:33.607Z</time>
      </trkpt>
      <trkpt lat="46.75679" lon="-0.1792">
        <ele>108.7</ele>
        <time>2019-02-03T21:14:33.641Z</time>
      </trkpt>
      <trkpt lat="46.75679" lon="-0.1792">
        <ele>108.7</ele>
        <time>2019-02-03T21:14:33.706Z</time>
      </trkpt>
      <trkpt lat="46.75678" lon="-0.17919">
        <ele>108.7</ele>
        <time>2019-02-03T21:14:33.950Z</time>
      </trkpt>
      <trkpt lat="46.75666" lon="-0.17909">
        <ele>108.4</ele>
        <time>2019-02-03T21:14:35.808Z</time>
      </trkpt>
      <trkpt lat="46.75665" lon="-0.17909">
        <ele>108.3</ele>
        <time>2019-02-03T21:14:35.848Z</time>
      </trkpt>
      <trkpt lat="46.75665" lon="-0.17908">
        <ele>108.2</ele>
        <time>2019-02-03T21:14:35.947Z</time>
      </trkpt>
      <trkpt lat="46.75663" lon="-0.17909">
        <ele>108.2</ele>
        <time>2019-02-03T21:14:36.189Z</time>
      </trkpt>
      <trkpt lat="46.75639" lon="-0.17931">
        <ele>108.5</ele>
        <time>2019-02-03T21:14:39.992Z</time>
      </trkpt>
      <trkpt lat="46.75639" lon="-0.17931">
        <ele>108.6</ele>
        <time>2019-02-03T21:14:40.033Z</time>
      </trkpt>
      <trkpt lat="46.75638" lon="-0.17932">
        <ele>108.6</ele>
        <time>2019-02-03T21:14:40.132Z</time>
      </trkpt>
      <trkpt lat="46.75636" lon="-0.17932">
        <ele>108.6</ele>
        <time>2019-02-03T21:14:40.378Z</time>
      </trkpt>
      <trkpt lat="46.75604" lon="-0.17934">
        <ele>110</ele>
        <time>2019-02-03T21:14:44.709Z</time>
      </trkpt>
      <trkpt lat="46.75603" lon="-0.17934">
        <ele>110.1</ele>
        <time>2019-02-03T21:14:44.755Z</time>
      </trkpt>
      <trkpt lat="46.75603" lon="-0.17934">
        <ele>110.2</ele>
        <time>2019-02-03T21:14:44.854Z</time>
      </trkpt>
      <trkpt lat="46.75601" lon="-0.17935">
        <ele>110.5</ele>
        <time>2019-02-03T21:14:45.099Z</time>
      </trkpt>
      <trkpt lat="46.75565" lon="-0.17942">
        <ele>115.7</ele>
        <time>2019-02-03T21:14:49.862Z</time>
      </trkpt>
      <trkpt lat="46.75565" lon="-0.17942">
        <ele>115.7</ele>
        <time>2019-02-03T21:14:49.905Z</time>
      </trkpt>
      <trkpt lat="46.75564" lon="-0.17942">
        <ele>115.8</ele>
        <time>2019-02-03T21:14:50.004Z</time>
      </trkpt>
      <trkpt lat="46.75563" lon="-0.17941">
        <ele>115.9</ele>
        <time>2019-02-03T21:14:50.248Z</time>
      </trkpt>
      <trkpt lat="46.75531" lon="-0.17935">
        <ele>115.7</ele>
        <time>2019-02-03T21:14:54.526Z</time>
      </trkpt>
      <trkpt lat="46.75531" lon="-0.17934">
        <ele>115.7</ele>
        <time>2019-02-03T21:14:54.570Z</time>
      </trkpt>
      <trkpt lat="46.7553" lon="-0.17934">
        <ele>115.7</ele>
        <time>2019-02-03T21:14:54.671Z</time>
      </trkpt>
      <trkpt lat="46.75528" lon="-0.17935">
        <ele>115.9</ele>
        <time>2019-02-03T21:14:54.915Z</time>
      </trkpt>
      <trkpt lat="46.75493" lon="-0.17947">
        <ele>118</ele>
        <time>2019-02-03T21:14:59.767Z</time>
      </trkpt>
      <trkpt lat="46.75492" lon="-0.17947">
        <ele>118</ele>
        <time>2019-02-03T21:14:59.810Z</time>
      </trkpt>
      <trkpt lat="46.75492" lon="-0.17947">
        <ele>118</ele>
        <time>2019-02-03T21:14:59.911Z</time>
      </trkpt>
      <trkpt lat="46.7549" lon="-0.17949">
        <ele>118</ele>
        <time>2019-02-03T21:15:00.150Z</time>
      </trkpt>
      <trkpt lat="46.75452" lon="-0.17984">
        <ele>117.7</ele>
        <time>2019-02-03T21:15:06.172Z</time>
      </trkpt>
      <trkpt lat="46.75452" lon="-0.17984">
        <ele>117.7</ele>
        <time>2019-02-03T21:15:06.213Z</time>
      </trkpt>
      <trkpt lat="46.75451" lon="-0.17985">
        <ele>117.6</ele>
        <time>2019-02-03T21:15:06.315Z</time>
      </trkpt>
      <trkpt lat="46.7545" lon="-0.17987">
        <ele>117.7</ele>
        <time>2019-02-03T21:15:06.544Z</time>
      </trkpt>
      <trkpt lat="46.75427" lon="-0.18044">
        <ele>119.5</ele>
        <time>2019-02-03T21:15:12.615Z</time>
      </trkpt>
      <trkpt lat="46.75427" lon="-0.18044">
        <ele>119.5</ele>
        <time>2019-02-03T21:15:12.645Z</time>
      </trkpt>
      <trkpt lat="46.75426" lon="-0.18045">
        <ele>119.5</ele>
        <time>2019-02-03T21:15:12.748Z</time>
      </trkpt>
      <trkpt lat="46.75425" lon="-0.18043">
        <ele>119.2</ele>
        <time>2019-02-03T21:15:12.967Z</time>
      </trkpt>
      <trkpt lat="46.75388" lon="-0.17942">
        <ele>104.8</ele>
        <time>2019-02-03T21:15:23.413Z</time>
      </trkpt>
      <trkpt lat="46.75388" lon="-0.17942">
        <ele>104.8</ele>
        <time>2019-02-03T21:15:23.433Z</time>
      </trkpt>
      <trkpt lat="46.75388" lon="-0.17941">
        <ele>104.7</ele>
        <time>2019-02-03T21:15:23.536Z</time>
      </trkpt>
      <trkpt lat="46.75387" lon="-0.17939">
        <ele>104.6</ele>
        <time>2019-02-03T21:15:23.773Z</time>
      </trkpt>
      <trkpt lat="46.75386" lon="-0.17932">
        <ele>104.1</ele>
        <time>2019-02-03T21:15:24.402Z</time>
      </trkpt>
      <trkpt lat="46.75384" lon="-0.17928">
        <ele>103.7</ele>
        <time>2019-02-03T21:15:24.855Z</time>
      </trkpt>
      <trkpt lat="46.75379" lon="-0.17925">
        <ele>103.4</ele>
        <time>2019-02-03T21:15:25.577Z</time>
      </trkpt>
      <trkpt lat="46.75335" lon="-0.17919">
        <ele>101.3</ele>
        <time>2019-02-03T21:15:31.481Z</time>
      </trkpt>
      <trkpt lat="46.75302" lon="-0.1791">
        <ele>100.4</ele>
        <time>2019-02-03T21:15:35.966Z</time>
      </trkpt>
      <trkpt lat="46.75274" lon="-0.17903">
        <ele>98.8</ele>
        <time>2019-02-03T21:15:39.761Z</time>
      </trkpt>
      <trkpt lat="46.75253" lon="-0.17902">
        <ele>97.6</ele>
        <time>2019-02-03T21:15:42.613Z</time>
      </trkpt>
      <trkpt lat="46.75252" lon="-0.17902">
        <ele>97.6</ele>
        <time>2019-02-03T21:15:42.656Z</time>
      </trkpt>
      <trkpt lat="46.75252" lon="-0.17902">
        <ele>97.6</ele>
        <time>2019-02-03T21:15:42.702Z</time>
      </trkpt>
      <trkpt lat="46.7525" lon="-0.17902">
        <ele>97.5</ele>
        <time>2019-02-03T21:15:43.000Z</time>
      </trkpt>
      <trkpt lat="46.75235" lon="-0.179">
        <ele>97.1</ele>
        <time>2019-02-03T21:15:44.981Z</time>
      </trkpt>
      <trkpt lat="46.75224" lon="-0.17896">
        <ele>96.6</ele>
        <time>2019-02-03T21:15:46.496Z</time>
      </trkpt>
      <trkpt lat="46.75207" lon="-0.17885">
        <ele>95.9</ele>
        <time>2019-02-03T21:15:48.980Z</time>
      </trkpt>
      <trkpt lat="46.75192" lon="-0.17875">
        <ele>96.2</ele>
        <time>2019-02-03T21:15:51.183Z</time>
      </trkpt>
      <trkpt lat="46.75178" lon="-0.17869">
        <ele>97.4</ele>
        <time>2019-02-03T21:15:53.132Z</time>
      </trkpt>
      <trkpt lat="46.75168" lon="-0.17867">
        <ele>98.5</ele>
        <time>2019-02-03T21:15:54.480Z</time>
      </trkpt>
      <trkpt lat="46.75163" lon="-0.17868">
        <ele>98.8</ele>
        <time>2019-02-03T21:15:55.154Z</time>
      </trkpt>
      <trkpt lat="46.75153" lon="-0.17877">
        <ele>99.1</ele>
        <time>2019-02-03T21:15:56.724Z</time>
      </trkpt>
      <trkpt lat="46.75137" lon="-0.17887">
        <ele>100.3</ele>
        <time>2019-02-03T21:15:59.049Z</time>
      </trkpt>
      <trkpt lat="46.75119" lon="-0.17895">
        <ele>101.9</ele>
        <time>2019-02-03T21:16:01.563Z</time>
      </trkpt>
      <trkpt lat="46.75092" lon="-0.17896">
        <ele>103.1</ele>
        <time>2019-02-03T21:16:05.171Z</time>
      </trkpt>
      <trkpt lat="46.75076" lon="-0.17892">
        <ele>103.6</ele>
        <time>2019-02-03T21:16:07.340Z</time>
      </trkpt>
      <trkpt lat="46.7506" lon="-0.17884">
        <ele>104.4</ele>
        <time>2019-02-03T21:16:09.599Z</time>
      </trkpt>
      <trkpt lat="46.75045" lon="-0.17873">
        <ele>103.9</ele>
        <time>2019-02-03T21:16:11.842Z</time>
      </trkpt>
      <trkpt lat="46.75019" lon="-0.17848">
        <ele>103</ele>
        <time>2019-02-03T21:16:16.002Z</time>
      </trkpt>
      <trkpt lat="46.74993" lon="-0.17817">
        <ele>101.4</ele>
        <time>2019-02-03T21:16:20.487Z</time>
      </trkpt>
      <trkpt lat="46.74959" lon="-0.17784">
        <ele>99.8</ele>
        <time>2019-02-03T21:16:25.942Z</time>
      </trkpt>
      <trkpt lat="46.74912" lon="-0.17754">
        <ele>100.6</ele>
        <time>2019-02-03T21:16:32.795Z</time>
      </trkpt>
      <trkpt lat="46.74892" lon="-0.17743">
        <ele>101.5</ele>
        <time>2019-02-03T21:16:35.650Z</time>
      </trkpt>
      <trkpt lat="46.74884" lon="-0.17742">
        <ele>102.1</ele>
        <time>2019-02-03T21:16:36.723Z</time>
      </trkpt>
      <trkpt lat="46.74876" lon="-0.17744">
        <ele>102.8</ele>
        <time>2019-02-03T21:16:37.807Z</time>
      </trkpt>
      <trkpt lat="46.74867" lon="-0.17739">
        <ele>103.5</ele>
        <time>2019-02-03T21:16:39.094Z</time>
      </trkpt>
      <trkpt lat="46.74838" lon="-0.17722">
        <ele>105.6</ele>
        <time>2019-02-03T21:16:43.269Z</time>
      </trkpt>
      <trkpt lat="46.74777" lon="-0.17674">
        <ele>103.5</ele>
        <time>2019-02-03T21:16:52.527Z</time>
      </trkpt>
      <trkpt lat="46.7477" lon="-0.17669">
        <ele>103.2</ele>
        <time>2019-02-03T21:16:53.568Z</time>
      </trkpt>
      <trkpt lat="46.74753" lon="-0.17667">
        <ele>103</ele>
        <time>2019-02-03T21:16:55.882Z</time>
      </trkpt>
      <trkpt lat="46.74752" lon="-0.17667">
        <ele>103</ele>
        <time>2019-02-03T21:16:55.925Z</time>
      </trkpt>
      <trkpt lat="46.74752" lon="-0.17667">
        <ele>103</ele>
        <time>2019-02-03T21:16:55.980Z</time>
      </trkpt>
      <trkpt lat="46.7475" lon="-0.17667">
        <ele>103</ele>
        <time>2019-02-03T21:16:56.269Z</time>
      </trkpt>
      <trkpt lat="46.74744" lon="-0.17666">
        <ele>102.9</ele>
        <time>2019-02-03T21:16:57.053Z</time>
      </trkpt>
      <trkpt lat="46.74727" lon="-0.17663">
        <ele>102.5</ele>
        <time>2019-02-03T21:16:59.341Z</time>
      </trkpt>
      <trkpt lat="46.74706" lon="-0.17666">
        <ele>101.8</ele>
        <time>2019-02-03T21:17:02.160Z</time>
      </trkpt>
      <trkpt lat="46.74672" lon="-0.17675">
        <ele>101.3</ele>
        <time>2019-02-03T21:17:06.776Z</time>
      </trkpt>
      <trkpt lat="46.74657" lon="-0.17677">
        <ele>101.7</ele>
        <time>2019-02-03T21:17:08.788Z</time>
      </trkpt>
      <trkpt lat="46.74651" lon="-0.17675">
        <ele>101.6</ele>
        <time>2019-02-03T21:17:09.610Z</time>
      </trkpt>
      <trkpt lat="46.74644" lon="-0.17667">
        <ele>100.9</ele>
        <time>2019-02-03T21:17:10.798Z</time>
      </trkpt>
      <trkpt lat="46.74636" lon="-0.17648">
        <ele>100</ele>
        <time>2019-02-03T21:17:12.839Z</time>
      </trkpt>
      <trkpt lat="46.74625" lon="-0.17616">
        <ele>99.3</ele>
        <time>2019-02-03T21:17:16.116Z</time>
      </trkpt>
      <trkpt lat="46.7461" lon="-0.17597">
        <ele>99</ele>
        <time>2019-02-03T21:17:18.769Z</time>
      </trkpt>
      <trkpt lat="46.74589" lon="-0.17583">
        <ele>98.8</ele>
        <time>2019-02-03T21:17:21.853Z</time>
      </trkpt>
      <trkpt lat="46.74555" lon="-0.17566">
        <ele>97.4</ele>
        <time>2019-02-03T21:17:26.654Z</time>
      </trkpt>
      <trkpt lat="46.74541" lon="-0.1755">
        <ele>96.3</ele>
        <time>2019-02-03T21:17:29.030Z</time>
      </trkpt>
      <trkpt lat="46.7452" lon="-0.17519">
        <ele>94.9</ele>
        <time>2019-02-03T21:17:33.021Z</time>
      </trkpt>
      <trkpt lat="46.74506" lon="-0.1751">
        <ele>95.9</ele>
        <time>2019-02-03T21:17:35.065Z</time>
      </trkpt>
      <trkpt lat="46.74499" lon="-0.1751">
        <ele>96.4</ele>
        <time>2019-02-03T21:17:36.000Z</time>
      </trkpt>
      <trkpt lat="46.74486" lon="-0.17517">
        <ele>97</ele>
        <time>2019-02-03T21:17:37.851Z</time>
      </trkpt>
      <trkpt lat="46.74469" lon="-0.17525">
        <ele>97.8</ele>
        <time>2019-02-03T21:17:40.237Z</time>
      </trkpt>
      <trkpt lat="46.74456" lon="-0.17527">
        <ele>99.4</ele>
        <time>2019-02-03T21:17:41.983Z</time>
      </trkpt>
      <trkpt lat="46.74447" lon="-0.17525">
        <ele>100.9</ele>
        <time>2019-02-03T21:17:43.199Z</time>
      </trkpt>
      <trkpt lat="46.74438" lon="-0.17518">
        <ele>102.7</ele>
        <time>2019-02-03T21:17:44.561Z</time>
      </trkpt>
      <trkpt lat="46.74428" lon="-0.17505">
        <ele>104.8</ele>
        <time>2019-02-03T21:17:46.350Z</time>
      </trkpt>
      <trkpt lat="46.74377" lon="-0.17416">
        <ele>113.4</ele>
        <time>2019-02-03T21:17:56.971Z</time>
      </trkpt>
      <trkpt lat="46.7437" lon="-0.17407">
        <ele>113.9</ele>
        <time>2019-02-03T21:17:58.217Z</time>
      </trkpt>
      <trkpt lat="46.74364" lon="-0.17404">
        <ele>114.3</ele>
        <time>2019-02-03T21:17:59.064Z</time>
      </trkpt>
      <trkpt lat="46.74333" lon="-0.17397">
        <ele>116.3</ele>
        <time>2019-02-03T21:18:03.255Z</time>
      </trkpt>
      <trkpt lat="46.74314" lon="-0.17401">
        <ele>117.1</ele>
        <time>2019-02-03T21:18:05.820Z</time>
      </trkpt>
      <trkpt lat="46.74278" lon="-0.17415">
        <ele>118</ele>
        <time>2019-02-03T21:18:10.797Z</time>
      </trkpt>
      <trkpt lat="46.74225" lon="-0.17426">
        <ele>120.8</ele>
        <time>2019-02-03T21:18:17.949Z</time>
      </trkpt>
      <trkpt lat="46.74194" lon="-0.1743">
        <ele>123</ele>
        <time>2019-02-03T21:18:22.107Z</time>
      </trkpt>
      <trkpt lat="46.74142" lon="-0.17429">
        <ele>125.9</ele>
        <time>2019-02-03T21:18:29.055Z</time>
      </trkpt>
      <trkpt lat="46.74117" lon="-0.17429">
        <ele>126.8</ele>
        <time>2019-02-03T21:18:32.395Z</time>
      </trkpt>
      <trkpt lat="46.74102" lon="-0.17426">
        <ele>127.2</ele>
        <time>2019-02-03T21:18:34.418Z</time>
      </trkpt>
      <trkpt lat="46.74082" lon="-0.17417">
        <ele>127.9</ele>
        <time>2019-02-03T21:18:37.214Z</time>
      </trkpt>
      <trkpt lat="46.74055" lon="-0.17401">
        <ele>127.6</ele>
        <time>2019-02-03T21:18:41.107Z</time>
      </trkpt>
      <trkpt lat="46.73995" lon="-0.17356">
        <ele>128</ele>
        <time>2019-02-03T21:18:50.120Z</time>
      </trkpt>
      <trkpt lat="46.73962" lon="-0.1733">
        <ele>127.6</ele>
        <time>2019-02-03T21:18:55.130Z</time>
      </trkpt>
      <trkpt lat="46.73942" lon="-0.17311">
        <ele>126.9</ele>
        <time>2019-02-03T21:18:58.318Z</time>
      </trkpt>
      <trkpt lat="46.73882" lon="-0.17269">
        <ele>126</ele>
        <time>2019-02-03T21:19:07.208Z</time>
      </trkpt>
      <trkpt lat="46.73854" lon="-0.17254">
        <ele>126</ele>
        <time>2019-02-03T21:19:11.193Z</time>
      </trkpt>
      <trkpt lat="46.73795" lon="-0.17229">
        <ele>125.2</ele>
        <time>2019-02-03T21:19:19.401Z</time>
      </trkpt>
      <trkpt lat="46.7367" lon="-0.17177">
        <ele>125.4</ele>
        <time>2019-02-03T21:19:36.766Z</time>
      </trkpt>
      <trkpt lat="46.73639" lon="-0.17167">
        <ele>125</ele>
        <time>2019-02-03T21:19:41.007Z</time>
      </trkpt>
      <trkpt lat="46.73594" lon="-0.17157">
        <ele>124.7</ele>
        <time>2019-02-03T21:19:47.088Z</time>
      </trkpt>
      <trkpt lat="46.73528" lon="-0.1714">
        <ele>124</ele>
        <time>2019-02-03T21:19:56.042Z</time>
      </trkpt>
      <trkpt lat="46.73506" lon="-0.17133">
        <ele>123.8</ele>
        <time>2019-02-03T21:19:59.050Z</time>
      </trkpt>
      <trkpt lat="46.73438" lon="-0.17101">
        <ele>122.9</ele>
        <time>2019-02-03T21:20:08.595Z</time>
      </trkpt>
      <trkpt lat="46.73403" lon="-0.17077">
        <ele>123.4</ele>
        <time>2019-02-03T21:20:13.761Z</time>
      </trkpt>
      <trkpt lat="46.7338" lon="-0.17061">
        <ele>123.5</ele>
        <time>2019-02-03T21:20:17.165Z</time>
      </trkpt>
      <trkpt lat="46.73359" lon="-0.1705">
        <ele>123.9</ele>
        <time>2019-02-03T21:20:20.146Z</time>
      </trkpt>
      <trkpt lat="46.73335" lon="-0.17041">
        <ele>124.4</ele>
        <time>2019-02-03T21:20:23.457Z</time>
      </trkpt>
      <trkpt lat="46.73309" lon="-0.17034">
        <ele>124.2</ele>
        <time>2019-02-03T21:20:26.989Z</time>
      </trkpt>
      <trkpt lat="46.73291" lon="-0.1703">
        <ele>124.1</ele>
        <time>2019-02-03T21:20:29.421Z</time>
      </trkpt>
      <trkpt lat="46.73268" lon="-0.17028">
        <ele>124</ele>
        <time>2019-02-03T21:20:32.499Z</time>
      </trkpt>
      <trkpt lat="46.73253" lon="-0.17028">
        <ele>124</ele>
        <time>2019-02-03T21:20:34.503Z</time>
      </trkpt>
      <trkpt lat="46.73241" lon="-0.1703">
        <ele>124.4</ele>
        <time>2019-02-03T21:20:36.117Z</time>
      </trkpt>
      <trkpt lat="46.73214" lon="-0.17035">
        <ele>125</ele>
        <time>2019-02-03T21:20:39.753Z</time>
      </trkpt>
      <trkpt lat="46.73168" lon="-0.17044">
        <ele>125</ele>
        <time>2019-02-03T21:20:45.953Z</time>
      </trkpt>
      <trkpt lat="46.7316" lon="-0.17015">
        <ele>124.7</ele>
        <time>2019-02-03T21:20:48.815Z</time>
      </trkpt>
      <trkpt lat="46.73136" lon="-0.16935">
        <ele>125</ele>
        <time>2019-02-03T21:20:56.811Z</time>
      </trkpt>
      <trkpt lat="46.73115" lon="-0.16848">
        <ele>125.4</ele>
        <time>2019-02-03T21:21:05.257Z</time>
      </trkpt>
      <trkpt lat="46.73106" lon="-0.16816">
        <ele>125.2</ele>
        <time>2019-02-03T21:21:08.424Z</time>
      </trkpt>
      <trkpt lat="46.73088" lon="-0.1677">
        <ele>126</ele>
        <time>2019-02-03T21:21:13.274Z</time>
      </trkpt>
      <trkpt lat="46.73059" lon="-0.16705">
        <ele>125.7</ele>
        <time>2019-02-03T21:21:20.376Z</time>
      </trkpt>
      <trkpt lat="46.73043" lon="-0.16658">
        <ele>124.7</ele>
        <time>2019-02-03T21:21:25.181Z</time>
      </trkpt>
      <trkpt lat="46.73027" lon="-0.16606">
        <ele>122.8</ele>
        <time>2019-02-03T21:21:30.400Z</time>
      </trkpt>
      <trkpt lat="46.73018" lon="-0.16589">
        <ele>122.6</ele>
        <time>2019-02-03T21:21:32.367Z</time>
      </trkpt>
      <trkpt lat="46.73" lon="-0.16581">
        <ele>122.9</ele>
        <time>2019-02-03T21:21:34.881Z</time>
      </trkpt>
      <trkpt lat="46.72993" lon="-0.16574">
        <ele>122.9</ele>
        <time>2019-02-03T21:21:36.015Z</time>
      </trkpt>
      <trkpt lat="46.7297" lon="-0.16556">
        <ele>123.2</ele>
        <time>2019-02-03T21:21:39.502Z</time>
      </trkpt>
      <trkpt lat="46.72943" lon="-0.1654">
        <ele>123.9</ele>
        <time>2019-02-03T21:21:43.395Z</time>
      </trkpt>
      <trkpt lat="46.72913" lon="-0.16527">
        <ele>123.1</ele>
        <time>2019-02-03T21:21:47.576Z</time>
      </trkpt>
      <trkpt lat="46.729" lon="-0.1652">
        <ele>123.2</ele>
        <time>2019-02-03T21:21:49.427Z</time>
      </trkpt>
      <trkpt lat="46.72892" lon="-0.16518">
        <ele>123.2</ele>
        <time>2019-02-03T21:21:50.511Z</time>
      </trkpt>
      <trkpt lat="46.72855" lon="-0.16523">
        <ele>123.2</ele>
        <time>2019-02-03T21:21:55.485Z</time>
      </trkpt>
    </trkseg>
  </trk>
</gpx>